Terminal Aerodrome Forecast
Issued by NWS

Home | Current Version | Previous Version | Text Only | Print | Product List | Glossary On
Versions: 1 2 3 4 5 6 7 8 9 10 11 12 13 14 15 16 17 18 19 20 21 22
000
FTUS45 KGGW 302300
TAFOLF
TAF
KOLF 302320Z 3100/3124 13005KT P6SM VCSH SCT080 BKN100
     FM310600 00000KT P6SM FEW120 SCT250
     FM311300 VRB04KT P6SM SKC=

USA.gov is the U.S. government's official web portal to all federal, state and local government web resources and services.